Time;durP1;ratioP1;P1;durP2;ratioP2;P2;SDS_P1;SDS_P2;PMS_P1;PMS_P2;Temp;Humidity;BMP_temperature;BMP_pressure;BME280_temperature;BME280_humidity;BME280_pressure;Samples;Min_cycle;Max_cycle;Signal;HPM_P1;HPM_P2
2022/01/26 00:07:45;;;;;;;106.00;45.97;;;3.70;98.30;;;;;;5105649;28;20190;-88
2022/01/26 00:10:10;;;;;;;105.77;45.23;;;3.80;97.90;;;;;;5086773;28;20175;-92
2022/01/26 00:12:39;;;;;;;104.53;47.50;;;3.70;97.50;;;;;;5087249;28;20172;-90
2022/01/26 00:15:05;;;;;;;100.97;45.83;;;3.90;97.50;;;;;;5087293;28;20223;-92
2022/01/26 00:17:31;;;;;;;110.33;48.57;;;3.80;96.70;;;;;;5087963;28;20577;-92
2022/01/26 00:20:27;;;;;;;106.57;47.53;;;3.80;97.00;;;;;;5089260;28;20178;-92
2022/01/26 00:25:58;;;;;;;104.23;47.53;;;4.00;96.70;;;;;;5119777;28;20182;-87
2022/01/26 00:28:45;;;;;;;108.17;47.37;;;3.90;96.00;;;;;;5102039;28;20159;-88
2022/01/26 00:31:59;;;;;;;105.20;47.23;;;4.10;96.00;;;;;;5098436;28;20170;-90
2022/01/26 00:38:33;;;;;;;107.07;48.43;;;4.00;95.40;;;;;;5111126;28;20710;-90
2022/01/26 00:39:57;;;;;;;101.47;47.43;;;3.90;95.40;;;;;;5105375;28;20187;-92
2022/01/26 00:42:23;;;;;;;101.40;44.90;;;4.20;95.60;;;;;;5095021;28;20171;-92
2022/01/26 00:44:53;;;;;;;103.37;49.83;;;4.00;95.20;;;;;;5110934;28;20199;-93
2022/01/26 00:47:19;;;;;;;101.23;46.10;;;4.10;95.10;;;;;;5082665;28;20623;-93
2022/01/26 00:49:45;;;;;;;108.00;50.10;;;4.20;95.10;;;;;;5070497;28;20176;-91
2022/01/26 00:52:14;;;;;;;103.53;48.30;;;4.10;94.30;;;;;;5091114;28;20159;-91
2022/01/26 00:54:40;;;;;;;103.63;48.87;;;4.00;95.20;;;;;;5073870;28;20273;-93
2022/01/26 00:57:06;;;;;;;101.13;48.27;;;4.10;95.50;;;;;;5093471;28;20148;-93
2022/01/26 00:59:32;;;;;;;100.80;48.77;;;4.10;95.40;;;;;;5093135;28;20183;-90
2022/01/26 01:01:58;;;;;;;96.60;47.30;;;3.90;95.20;;;;;;5085926;28;20262;-91
2022/01/26 01:04:24;;;;;;;96.80;46.80;;;3.80;95.50;;;;;;5088392;28;20183;-92
2022/01/26 01:06:57;;;;;;;98.47;45.07;;;3.90;95.30;;;;;;5097354;28;20172;-88
2022/01/26 01:09:24;;;;;;;97.10;46.43;;;3.90;95.00;;;;;;5117194;28;20159;-89
2022/01/26 01:11:55;;;;;;;99.70;47.80;;;3.90;95.20;;;;;;5091268;28;20190;-92
2022/01/26 01:14:22;;;;;;;101.40;46.77;;;4.00;94.80;;;;;;5087976;28;20221;-91
2022/01/26 01:16:48;;;;;;;103.40;48.33;;;4.00;94.70;;;;;;5087956;28;20187;-92
2022/01/26 01:22:41;;;;;;;105.97;48.17;;;3.80;95.30;;;;;;5102535;28;20192;-90
2022/01/26 01:28:11;;;;;;;96.53;43.67;;;3.60;95.20;;;;;;5103002;28;20163;-92
2022/01/26 01:30:38;;;;;;;96.03;43.47;;;3.70;95.40;;;;;;5101624;28;20187;-91
2022/01/26 01:33:07;;;;;;;104.27;46.67;;;3.50;95.60;;;;;;5103747;28;20187;-91
2022/01/26 01:35:37;;;;;;;90.97;43.80;;;3.40;95.70;;;;;;5085242;28;20223;-91
2022/01/26 01:38:12;;;;;;;101.43;46.67;;;3.50;95.70;;;;;;5085301;28;20167;-88
2022/01/26 01:40:40;;;;;;;100.77;46.13;;;3.60;95.60;;;;;;5085518;28;20187;-90
2022/01/26 01:43:08;;;;;;;102.43;47.17;;;3.50;95.60;;;;;;5087889;28;20213;-92
2022/01/26 01:45:45;;;;;;;98.53;47.30;;;3.70;95.50;;;;;;5069898;28;20172;-91
2022/01/26 01:48:19;;;;;;;98.17;46.87;;;3.70;94.70;;;;;;5102984;28;20254;-90
2022/01/26 01:50:48;;;;;;;97.53;44.83;;;3.80;94.80;;;;;;5096055;28;20180;-91
2022/01/26 01:53:16;;;;;;;95.23;43.57;;;3.90;94.30;;;;;;5102035;28;20187;-85
2022/01/26 01:55:48;;;;;;;97.50;42.70;;;3.90;94.10;;;;;;5101906;28;20191;-87
2022/01/26 01:58:17;;;;;;;91.97;44.27;;;3.90;93.60;;;;;;5101748;28;20163;-92
2022/01/26 02:00:46;;;;;;;95.93;45.83;;;3.90;93.40;;;;;;5078910;28;20604;-92
2022/01/26 02:03:15;;;;;;;91.67;44.83;;;3.90;93.70;;;;;;5082102;28;20201;-91
2022/01/26 02:05:48;;;;;;;87.43;43.07;;;4.00;93.50;;;;;;5098292;28;20203;-92
2022/01/26 02:08:14;;;;;;;89.50;43.83;;;3.80;93.70;;;;;;5083743;28;20167;-93
2022/01/26 02:10:43;;;;;;;93.27;45.03;;;3.80;94.00;;;;;;5084573;28;20270;-90
2022/01/26 02:13:19;;;;;;;90.30;42.67;;;4.00;94.30;;;;;;5085303;28;20172;-93
2022/01/26 02:15:53;;;;;;;91.70;44.97;;;4.10;94.00;;;;;;5084602;28;20222;-88
2022/01/26 02:56:18;;;;;;;79.47;36.37;;;3.80;99.90;;;;;;5102399;28;20254;-93
2022/01/26 03:06:45;;;;;;;85.40;37.43;;;3.70;99.90;;;;;;5100382;28;21024;-89
2022/01/26 03:09:14;;;;;;;79.27;35.67;;;3.70;99.90;;;;;;5086920;28;20221;-89
2022/01/26 03:11:43;;;;;;;76.67;34.77;;;3.80;99.90;;;;;;5087526;28;20190;-91
2022/01/26 03:14:58;;;;;;;72.67;33.83;;;3.60;99.90;;;;;;5094277;28;20187;-90
2022/01/26 03:17:00;;;;;;;77.77;34.70;;;3.60;99.90;;;;;;5097622;28;20646;-91
2022/01/26 03:30:51;;;;;;;78.90;34.97;;;3.60;99.90;;;;;;5105692;28;20178;-92
2022/01/26 03:35:58;;;;;;;77.03;34.80;;;3.50;99.90;;;;;;5104145;28;20182;-93
2022/01/26 03:38:38;;;;;;;70.87;33.00;;;3.30;99.90;;;;;;5082867;28;20175;-92
2022/01/26 03:41:27;;;;;;;83.37;35.37;;;3.40;99.90;;;;;;5084421;28;20198;-92
2022/01/26 03:43:53;;;;;;;71.13;30.20;;;3.50;99.90;;;;;;5083782;28;20171;-92
2022/01/26 03:46:19;;;;;;;67.73;31.33;;;3.40;99.90;;;;;;5087616;28;20203;-91
2022/01/26 03:48:45;;;;;;;65.83;30.10;;;3.30;99.90;;;;;;5087650;28;20175;-94
2022/01/26 03:51:11;;;;;;;68.00;30.70;;;3.40;99.90;;;;;;5091560;28;20186;-92
2022/01/26 03:53:37;;;;;;;71.47;32.13;;;3.50;99.90;;;;;;5089105;28;20250;-93
2022/01/26 03:56:03;;;;;;;74.30;32.27;;;3.30;99.90;;;;;;5089136;28;20257;-91
2022/01/26 03:58:30;;;;;;;82.07;34.30;;;3.30;99.90;;;;;;5096891;28;20171;-93
2022/01/26 04:00:56;;;;;;;70.67;34.83;;;3.20;99.90;;;;;;5095741;28;20661;-88
2022/01/26 04:03:24;;;;;;;75.17;33.70;;;3.30;99.90;;;;;;5090352;28;20176;-92
2022/01/26 04:05:50;;;;;;;70.27;33.77;;;3.40;99.90;;;;;;5096812;28;20178;-90
2022/01/26 04:08:22;;;;;;;73.93;35.93;;;3.40;99.90;;;;;;5100249;28;20235;-93
2022/01/26 04:13:22;;;;;;;71.87;33.10;;;3.30;99.90;;;;;;5104404;28;20175;-87
2022/01/26 04:15:48;;;;;;;72.77;31.73;;;3.30;99.90;;;;;;5089695;28;20194;-87
2022/01/26 04:18:19;;;;;;;75.00;33.53;;;3.30;99.90;;;;;;5094871;28;20250;-87
2022/01/26 04:20:52;;;;;;;77.43;35.10;;;3.10;99.90;;;;;;5095061;28;20662;-89
2022/01/26 04:23:25;;;;;;;71.87;33.57;;;3.40;99.90;;;;;;5100325;28;20239;-87
2022/01/26 04:25:53;;;;;;;78.27;34.37;;;3.20;99.90;;;;;;5100776;28;20167;-88
2022/01/26 04:28:28;;;;;;;75.57;34.60;;;3.10;99.90;;;;;;5103653;28;20182;-86
2022/01/26 04:31:08;;;;;;;67.47;31.20;;;3.10;99.90;;;;;;5120995;28;20156;-86
2022/01/26 04:33:34;;;;;;;71.47;34.37;;;3.10;99.90;;;;;;5099179;28;20202;-89
2022/01/26 04:36:05;;;;;;;74.27;33.50;;;3.10;99.90;;;;;;5101773;28;20183;-89
2022/01/26 04:38:40;;;;;;;80.50;35.67;;;3.10;99.90;;;;;;5083500;28;20256;-88
2022/01/26 04:43:50;;;;;;;71.90;34.63;;;3.10;99.90;;;;;;5108165;28;20521;-88
2022/01/26 04:46:16;;;;;;;83.17;36.37;;;3.20;99.90;;;;;;5090484;28;20213;-92
2022/01/26 04:48:44;;;;;;;80.50;35.27;;;3.30;99.90;;;;;;5090201;28;20179;-90
2022/01/26 04:51:11;;;;;;;82.47;37.03;;;3.30;99.90;;;;;;5074712;28;20168;-89
2022/01/26 04:53:37;;;;;;;73.67;34.33;;;3.40;99.90;;;;;;5084884;28;20154;-86
2022/01/26 04:56:03;;;;;;;86.80;37.93;;;3.40;99.90;;;;;;5101210;28;20180;-86
2022/01/26 04:58:29;;;;;;;84.17;35.30;;;3.20;99.90;;;;;;5099075;28;20172;-92
2022/01/26 05:00:54;;;;;;;85.13;37.37;;;3.30;99.90;;;;;;5102498;28;20174;-89
2022/01/26 05:03:21;;;;;;;79.40;36.27;;;3.50;99.90;;;;;;5165199;22;20206;-88
2022/01/26 05:05:47;;;;;;;86.57;37.33;;;3.40;99.90;;;;;;5122862;28;20201;-87
2022/01/26 05:08:16;;;;;;;87.83;40.30;;;3.40;99.90;;;;;;5120467;28;20191;-89
2022/01/26 05:10:45;;;;;;;86.10;37.43;;;3.40;99.90;;;;;;5116263;28;20183;-92
2022/01/26 05:13:13;;;;;;;87.53;36.67;;;3.40;99.90;;;;;;5114920;28;20227;-91
2022/01/26 05:15:40;;;;;;;88.73;39.27;;;3.20;99.90;;;;;;5102448;28;20203;-91
2022/01/26 05:18:08;;;;;;;89.43;39.67;;;3.20;99.90;;;;;;5119552;27;20151;-88
2022/01/26 05:20:35;;;;;;;82.23;38.70;;;3.20;99.90;;;;;;5114937;27;20234;-88
2022/01/26 05:23:02;;;;;;;89.10;37.83;;;3.20;99.90;;;;;;5106006;27;20201;-91
2022/01/26 05:25:27;;;;;;;86.20;37.77;;;3.40;99.90;;;;;;5105918;27;20171;-88
2022/01/26 05:27:53;;;;;;;89.50;39.83;;;3.30;99.90;;;;;;5122642;28;20189;-89
2022/01/26 05:30:22;;;;;;;87.50;38.90;;;3.20;99.90;;;;;;5112005;28;20253;-94
2022/01/26 05:32:52;;;;;;;89.67;38.67;;;3.20;99.90;;;;;;5104325;28;20205;-91
2022/01/26 05:35:18;;;;;;;92.37;40.17;;;3.40;99.90;;;;;;5103713;28;20218;-93
2022/01/26 05:37:43;;;;;;;93.67;40.07;;;3.40;99.90;;;;;;5108490;28;20209;-90
2022/01/26 05:40:09;;;;;;;87.50;38.17;;;3.50;99.90;;;;;;5105857;28;20186;-90
2022/01/26 05:42:36;;;;;;;89.93;40.67;;;3.60;99.90;;;;;;5121462;28;20151;-89
2022/01/26 05:45:08;;;;;;;92.97;40.97;;;3.70;99.90;;;;;;5113944;28;20167;-91
2022/01/26 05:47:34;;;;;;;90.33;40.37;;;3.50;99.90;;;;;;5114798;28;20163;-89
2022/01/26 05:50:02;;;;;;;93.70;42.27;;;3.40;99.90;;;;;;5106495;28;20166;-89
2022/01/26 05:52:28;;;;;;;88.40;40.47;;;3.30;99.90;;;;;;5087603;28;20187;-91
2022/01/26 05:54:54;;;;;;;93.87;41.67;;;3.30;99.90;;;;;;5104623;28;20215;-91
2022/01/26 05:57:19;;;;;;;90.97;38.57;;;3.30;99.90;;;;;;5102858;28;20196;-93
2022/01/26 05:59:45;;;;;;;100.53;40.30;;;3.40;99.90;;;;;;5104464;28;20215;-90
2022/01/26 06:02:11;;;;;;;90.97;39.57;;;3.20;99.90;;;;;;5122864;28;20269;-89
2022/01/26 06:04:38;;;;;;;96.57;42.57;;;3.20;99.90;;;;;;5106965;28;20204;-88
2022/01/26 06:07:04;;;;;;;97.60;43.30;;;3.30;99.90;;;;;;5124759;28;20167;-88
2022/01/26 06:09:30;;;;;;;94.80;43.30;;;3.30;99.90;;;;;;5103195;28;20182;-89
2022/01/26 06:11:55;;;;;;;96.97;42.37;;;3.30;99.90;;;;;;5103300;28;20255;-86
2022/01/26 06:14:21;;;;;;;98.00;43.03;;;3.20;99.90;;;;;;5103517;28;20202;-89
2022/01/26 06:16:48;;;;;;;102.60;44.57;;;3.30;99.90;;;;;;5101692;28;20171;-91
2022/01/26 06:19:14;;;;;;;102.87;44.30;;;3.40;99.90;;;;;;5102520;28;20178;-89
2022/01/26 06:21:39;;;;;;;109.83;46.30;;;3.40;99.90;;;;;;5101938;28;20175;-92
2022/01/26 06:24:06;;;;;;;105.83;44.33;;;3.30;99.90;;;;;;5105608;28;20204;-91
2022/01/26 06:26:32;;;;;;;92.73;43.83;;;3.30;99.90;;;;;;5115493;28;20155;-91
2022/01/26 06:28:58;;;;;;;95.13;41.40;;;3.50;99.90;;;;;;5123294;28;20735;-89
2022/01/26 06:31:27;;;;;;;107.80;44.63;;;3.40;99.90;;;;;;5105052;28;20175;-91
2022/01/26 06:33:53;;;;;;;100.73;42.27;;;3.40;99.90;;;;;;5104220;28;20217;-88
2022/01/26 06:36:19;;;;;;;103.70;41.63;;;3.50;99.90;;;;;;5101676;28;20612;-87
2022/01/26 06:38:46;;;;;;;92.03;41.33;;;3.30;99.90;;;;;;5101791;28;20171;-92
2022/01/26 06:41:13;;;;;;;100.50;43.80;;;3.40;99.90;;;;;;5104752;28;20174;-88
2022/01/26 06:43:48;;;;;;;100.70;44.00;;;3.60;99.90;;;;;;5086404;28;20244;-91
2022/01/26 06:46:22;;;;;;;102.90;43.33;;;3.50;99.90;;;;;;5103272;28;20174;-93
2022/01/26 06:51:28;;;;;;;100.63;42.03;;;3.50;99.90;;;;;;5115221;27;20178;-91
2022/01/26 06:53:53;;;;;;;96.13;41.97;;;3.40;99.90;;;;;;5102219;28;20253;-90
2022/01/26 06:56:19;;;;;;;95.07;41.67;;;3.60;99.90;;;;;;5101879;28;20178;-90
2022/01/26 06:58:45;;;;;;;92.93;40.87;;;3.70;99.90;;;;;;5101249;28;20178;-92
2022/01/26 07:01:13;;;;;;;93.60;43.13;;;3.60;99.90;;;;;;5102146;28;20175;-90
2022/01/26 07:03:39;;;;;;;97.03;43.10;;;3.60;99.90;;;;;;5100662;28;20182;-89
2022/01/26 07:06:05;;;;;;;95.00;44.10;;;3.70;99.90;;;;;;5101559;28;20199;-90
2022/01/26 07:08:32;;;;;;;98.07;43.50;;;3.70;99.90;;;;;;5114067;28;20154;-91
2022/01/26 07:10:59;;;;;;;101.30;45.47;;;3.70;99.90;;;;;;5116610;28;20311;-92
2022/01/26 07:13:30;;;;;;;101.23;44.80;;;3.50;99.90;;;;;;5121003;28;20209;-89
2022/01/26 07:21:27;;;;;;;103.67;45.20;;;3.60;99.90;;;;;;5106879;28;20189;-91
2022/01/26 07:23:56;;;;;;;96.77;43.40;;;3.50;99.90;;;;;;5103813;28;20221;-90
2022/01/26 07:26:30;;;;;;;101.50;44.10;;;3.50;99.90;;;;;;5104555;28;20174;-90
2022/01/26 07:29:06;;;;;;;92.90;42.80;;;3.50;99.90;;;;;;5086758;28;20622;-90
2022/01/26 07:31:36;;;;;;;96.20;42.07;;;3.50;99.90;;;;;;5122528;28;20194;-92
2022/01/26 07:34:02;;;;;;;100.77;44.93;;;3.50;99.90;;;;;;5084696;28;20270;-91
2022/01/26 07:36:28;;;;;;;99.50;42.83;;;3.30;99.90;;;;;;5085596;28;20152;-92
2022/01/26 07:38:57;;;;;;;95.80;43.30;;;3.50;99.90;;;;;;5062522;28;20175;-91
2022/01/26 07:41:23;;;;;;;95.50;43.90;;;3.40;99.90;;;;;;5083238;28;20169;-93
2022/01/26 07:43:50;;;;;;;108.17;45.17;;;3.50;99.90;;;;;;5090888;28;20179;-92
2022/01/26 07:46:17;;;;;;;106.90;48.13;;;3.50;99.90;;;;;;5104921;28;20704;-93
2022/01/26 07:48:43;;;;;;;92.90;43.37;;;3.50;99.90;;;;;;5101091;28;20179;-92
2022/01/26 07:51:09;;;;;;;103.07;45.43;;;3.40;99.90;;;;;;5107011;28;20179;-88
2022/01/26 07:53:35;;;;;;;107.13;48.03;;;3.40;99.90;;;;;;5116280;28;20155;-88
2022/01/26 07:56:00;;;;;;;106.13;47.53;;;3.50;99.90;;;;;;5119656;27;20182;-88
2022/01/26 07:58:26;;;;;;;102.53;44.63;;;3.50;99.90;;;;;;5119139;28;20193;-88
2022/01/26 08:00:52;;;;;;;99.67;45.83;;;3.60;99.90;;;;;;5120755;27;20183;-89
2022/01/26 08:03:19;;;;;;;102.50;44.67;;;3.60;99.90;;;;;;5121460;28;20191;-90
2022/01/26 08:05:49;;;;;;;89.57;41.93;;;3.50;99.90;;;;;;5117380;28;20181;-92
2022/01/26 08:08:24;;;;;;;96.50;44.03;;;3.50;99.90;;;;;;5091640;28;20193;-94
2022/01/26 08:10:50;;;;;;;100.40;43.90;;;3.50;99.90;;;;;;5111365;28;20147;-91
2022/01/26 08:13:18;;;;;;;95.73;43.20;;;3.60;99.90;;;;;;5110014;28;20184;-91
2022/01/26 08:15:46;;;;;;;95.80;44.57;;;3.40;99.90;;;;;;5114295;28;20234;-94
2022/01/26 08:18:12;;;;;;;103.43;44.47;;;3.60;99.90;;;;;;5076424;28;20175;-88
2022/01/26 08:20:40;;;;;;;104.20;46.07;;;3.60;99.90;;;;;;5103390;28;20171;-90
2022/01/26 08:23:06;;;;;;;102.03;45.47;;;3.60;99.90;;;;;;5102383;28;20186;-88
2022/01/26 08:25:34;;;;;;;103.57;44.23;;;3.50;99.90;;;;;;5132774;27;20187;-91
2022/01/26 08:28:08;;;;;;;89.90;42.87;;;3.50;99.90;;;;;;5120779;28;20168;-89
2022/01/26 08:30:46;;;;;;;91.20;41.90;;;3.60;99.90;;;;;;5122718;28;20155;-91
2022/01/26 08:33:15;;;;;;;93.60;42.50;;;3.60;99.90;;;;;;5122676;27;20191;-90
2022/01/26 08:35:42;;;;;;;91.63;42.27;;;3.60;99.90;;;;;;5118625;28;20199;-93
2022/01/26 08:38:09;;;;;;;90.73;41.77;;;3.60;99.90;;;;;;5121529;28;20155;-92
2022/01/26 08:40:35;;;;;;;88.97;41.80;;;3.60;99.90;;;;;;5122620;27;20159;-91
2022/01/26 08:43:04;;;;;;;89.13;44.47;;;3.70;99.90;;;;;;5136873;27;20211;-93
2022/01/26 08:45:32;;;;;;;106.47;46.20;;;3.60;99.90;;;;;;5104036;27;20234;-89
2022/01/26 08:48:00;;;;;;;86.10;41.63;;;3.70;99.90;;;;;;5122806;27;20642;-89
2022/01/26 08:50:26;;;;;;;92.13;42.60;;;3.70;99.90;;;;;;5122835;27;20174;-89
2022/01/26 08:52:52;;;;;;;84.40;42.07;;;3.80;99.90;;;;;;5121891;27;20211;-87
2022/01/26 08:55:36;;;;;;;92.90;43.43;;;3.70;99.90;;;;;;5094944;28;20225;-86
2022/01/26 08:58:05;;;;;;;102.97;45.60;;;3.60;99.90;;;;;;5109295;28;20177;-88
2022/01/26 09:00:35;;;;;;;92.27;42.73;;;3.60;99.90;;;;;;5109443;28;20239;-89
2022/01/26 09:03:04;;;;;;;87.60;42.40;;;3.60;99.90;;;;;;5125941;28;20186;-86
2022/01/26 09:05:29;;;;;;;79.47;40.83;;;3.60;99.90;;;;;;5103359;28;20166;-90
2022/01/26 09:07:58;;;;;;;88.47;43.77;;;3.70;99.90;;;;;;5104051;28;20171;-90
2022/01/26 09:10:32;;;;;;;94.23;44.17;;;3.70;99.90;;;;;;5084871;28;20216;-89
2022/01/26 09:13:02;;;;;;;90.83;42.63;;;3.60;99.90;;;;;;5093040;28;20171;-89
2022/01/26 09:15:30;;;;;;;89.20;44.10;;;3.60;99.90;;;;;;5092542;28;20228;-88
2022/01/26 09:18:14;;;;;;;82.90;42.30;;;3.70;99.90;;;;;;5109989;28;20171;-89
2022/01/26 09:20:40;;;;;;;88.63;43.80;;;3.80;99.90;;;;;;5107337;28;20167;-90
2022/01/26 09:23:07;;;;;;;85.93;43.47;;;3.80;99.90;;;;;;5129177;28;20164;-87
2022/01/26 09:25:32;;;;;;;85.87;43.53;;;3.80;99.90;;;;;;5106792;28;20174;-89
2022/01/26 09:27:58;;;;;;;82.93;43.63;;;3.80;99.90;;;;;;5103354;28;20174;-88
2022/01/26 09:30:30;;;;;;;86.00;44.20;;;4.10;99.90;;;;;;5100618;28;20198;-86
2022/01/26 09:32:56;;;;;;;85.63;43.57;;;3.70;99.90;;;;;;5099907;28;20218;-86
2022/01/26 09:35:21;;;;;;;90.93;44.30;;;3.80;99.90;;;;;;5117812;28;20203;-85
2022/01/26 09:37:47;;;;;;;89.77;44.33;;;3.80;99.90;;;;;;5099173;28;20232;-89
2022/01/26 09:40:13;;;;;;;89.53;46.67;;;3.80;99.90;;;;;;5099675;28;20239;-86
2022/01/26 09:42:40;;;;;;;90.60;46.60;;;3.70;99.90;;;;;;5100164;28;20163;-88
2022/01/26 09:45:08;;;;;;;74.80;39.87;;;3.80;99.90;;;;;;5092251;28;20181;-86
2022/01/26 09:47:33;;;;;;;83.30;40.53;;;3.70;99.90;;;;;;5097328;28;20174;-85
2022/01/26 09:50:02;;;;;;;96.17;48.40;;;3.60;99.90;;;;;;5079350;28;20186;-85
2022/01/26 09:52:31;;;;;;;96.63;47.83;;;3.80;99.90;;;;;;5078668;28;20638;-85
2022/01/26 09:55:03;;;;;;;86.50;43.73;;;3.80;99.90;;;;;;5079045;28;20215;-87
2022/01/26 09:57:29;;;;;;;78.73;41.30;;;4.10;99.90;;;;;;5101423;28;20179;-87
2022/01/26 09:59:56;;;;;;;78.40;39.87;;;4.10;99.90;;;;;;5099595;28;20198;-86
2022/01/26 10:02:24;;;;;;;77.23;39.07;;;4.10;99.90;;;;;;5116238;28;20273;-88
2022/01/26 10:05:06;;;;;;;69.73;37.93;;;4.10;99.90;;;;;;5098630;28;20178;-87
2022/01/26 10:16:22;;;;;;;66.70;36.97;;;4.20;99.90;;;;;;5119562;28;20294;-87
2022/01/26 10:18:55;;;;;;;63.07;35.83;;;4.20;99.90;;;;;;5090369;28;20176;-90
2022/01/26 10:21:26;;;;;;;62.00;35.27;;;4.30;99.90;;;;;;5101354;28;20653;-90
2022/01/26 10:23:54;;;;;;;63.10;36.00;;;4.20;99.90;;;;;;5081100;28;20196;-90
2022/01/26 10:26:21;;;;;;;64.93;36.07;;;4.30;99.80;;;;;;5078504;28;20183;-88
2022/01/26 10:28:59;;;;;;;63.07;35.47;;;4.40;99.50;;;;;;5080249;28;20259;-89
2022/01/26 10:31:31;;;;;;;58.50;33.37;;;4.30;99.40;;;;;;5081102;28;20163;-90
2022/01/26 10:34:04;;;;;;;60.50;37.27;;;4.30;99.50;;;;;;5082999;28;20214;-89
2022/01/26 10:36:50;;;;;;;61.87;34.50;;;4.30;99.30;;;;;;5087336;28;20155;-91
2022/01/26 10:39:30;;;;;;;65.73;36.30;;;4.40;98.70;;;;;;5086320;28;20171;-92
2022/01/26 10:42:02;;;;;;;65.13;36.47;;;4.40;98.80;;;;;;5089871;28;20615;-91
2022/01/26 10:44:35;;;;;;;64.17;36.93;;;4.20;98.30;;;;;;5075779;28;20209;-90
2022/01/26 10:47:03;;;;;;;74.77;40.33;;;4.40;98.20;;;;;;5086647;28;20171;-90
2022/01/26 10:52:36;;;;;;;72.83;40.27;;;4.40;97.80;;;;;;5114121;28;20190;-90
2022/01/26 10:55:07;;;;;;;69.67;38.97;;;4.30;98.80;;;;;;5080835;28;20207;-90
2022/01/26 10:57:35;;;;;;;74.67;41.23;;;4.40;98.90;;;;;;5097834;28;20360;-90
2022/01/26 11:00:02;;;;;;;77.50;39.40;;;4.40;98.50;;;;;;5101293;28;20179;-92
2022/01/26 11:02:31;;;;;;;71.33;37.17;;;4.20;98.90;;;;;;5102904;28;20642;-91
2022/01/26 11:04:57;;;;;;;77.00;39.33;;;4.30;99.40;;;;;;5101500;28;20198;-91
2022/01/26 11:07:37;;;;;;;72.67;40.63;;;4.10;99.00;;;;;;5101239;28;20190;-92
2022/01/26 11:10:06;;;;;;;80.57;41.70;;;4.10;99.40;;;;;;5100666;28;20177;-90
2022/01/26 11:12:32;;;;;;;76.33;41.43;;;4.20;99.70;;;;;;5098954;28;20276;-91
2022/01/26 11:15:08;;;;;;;80.93;41.53;;;4.20;99.10;;;;;;5086725;28;20207;-91
2022/01/26 11:17:42;;;;;;;80.27;40.90;;;4.20;99.40;;;;;;5086949;28;20171;-90
2022/01/26 11:20:32;;;;;;;73.37;39.37;;;4.10;99.80;;;;;;5091072;28;20548;-92
2022/01/26 11:23:04;;;;;;;74.40;39.40;;;4.10;99.60;;;;;;5088141;28;20227;-91
2022/01/26 11:25:44;;;;;;;74.97;40.70;;;4.10;99.50;;;;;;5083750;28;20635;-88
2022/01/26 11:28:21;;;;;;;74.50;42.23;;;4.20;99.30;;;;;;5077904;28;20179;-93
2022/01/26 11:30:49;;;;;;;75.90;42.17;;;4.20;98.80;;;;;;5084720;28;20179;-93
2022/01/26 11:33:18;;;;;;;74.50;40.90;;;4.10;98.10;;;;;;5098736;28;20224;-92
2022/01/26 11:35:48;;;;;;;75.73;41.53;;;4.20;98.50;;;;;;5082826;28;20215;-92
2022/01/26 11:46:38;;;;;;;78.10;40.67;;;4.00;99.40;;;;;;5125812;28;20590;-91
2022/01/26 11:49:11;;;;;;;78.17;42.07;;;4.00;99.20;;;;;;5106718;28;20226;-92
2022/01/26 11:51:49;;;;;;;84.47;44.00;;;4.00;99.40;;;;;;5121259;28;20170;-93
2022/01/26 11:54:27;;;;;;;74.97;41.33;;;4.00;99.90;;;;;;5121883;27;20186;-90
2022/01/26 11:57:14;;;;;;;82.00;43.07;;;4.00;99.90;;;;;;5106562;28;20167;-92
2022/01/26 11:59:51;;;;;;;77.07;40.27;;;4.00;99.90;;;;;;5109218;28;20269;-91
2022/01/26 12:02:30;;;;;;;70.40;41.43;;;4.00;99.90;;;;;;5107383;28;20195;-91
2022/01/26 12:05:01;;;;;;;74.20;41.03;;;4.00;99.70;;;;;;5108948;28;20197;-93
2022/01/26 12:07:27;;;;;;;71.43;39.93;;;3.90;99.70;;;;;;5106904;28;20258;-90
2022/01/26 12:09:55;;;;;;;73.37;40.43;;;3.90;99.90;;;;;;5111206;28;20286;-91
2022/01/26 12:12:35;;;;;;;79.13;41.40;;;3.90;99.90;;;;;;5117520;27;20159;-91
2022/01/26 12:15:16;;;;;;;79.87;43.77;;;4.00;99.70;;;;;;5121318;27;20213;-90
2022/01/26 12:18:01;;;;;;;70.93;38.87;;;4.20;99.90;;;;;;5120639;28;20162;-89
2022/01/26 12:37:20;;;;;;;73.20;40.57;;;4.10;98.90;;;;;;5115083;28;20166;-89
2022/01/26 12:43:05;;;;;;;74.43;38.90;;;4.00;99.50;;;;;;5121003;28;20196;-89
2022/01/26 12:45:31;;;;;;;73.67;36.87;;;4.10;99.40;;;;;;5097737;28;20171;-88
2022/01/26 12:47:58;;;;;;;68.50;36.73;;;4.00;99.40;;;;;;5099684;28;20163;-88
2022/01/26 12:50:25;;;;;;;65.70;37.80;;;4.10;99.50;;;;;;5102805;28;20672;-88
2022/01/26 12:52:54;;;;;;;70.70;37.67;;;4.00;99.70;;;;;;5101316;28;20171;-89
2022/01/26 12:55:35;;;;;;;70.27;37.93;;;4.00;99.60;;;;;;5099952;28;20195;-88
2022/01/26 12:58:01;;;;;;;78.37;39.23;;;4.10;99.60;;;;;;5071716;28;20274;-89
2022/01/26 13:00:45;;;;;;;71.23;38.43;;;4.20;99.50;;;;;;5082388;28;20266;-91
2022/01/26 13:03:16;;;;;;;79.33;37.60;;;4.10;98.80;;;;;;5105175;28;20270;-89
2022/01/26 13:05:45;;;;;;;77.47;36.87;;;4.00;98.90;;;;;;5109727;28;20172;-90
2022/01/26 13:08:14;;;;;;;78.23;39.13;;;4.00;99.10;;;;;;5103499;28;20270;-88
2022/01/26 13:10:41;;;;;;;80.40;40.13;;;4.10;99.00;;;;;;5099046;28;20615;-86
2022/01/26 13:13:22;;;;;;;72.93;38.53;;;4.20;98.80;;;;;;5098818;28;20160;-87
2022/01/26 13:15:55;;;;;;;65.07;34.13;;;4.10;99.10;;;;;;5097601;28;20294;-89
2022/01/26 13:21:31;;;;;;;76.30;36.50;;;4.10;98.80;;;;;;5098836;28;20173;-87
2022/01/26 13:26:47;;;;;;;66.17;34.60;;;4.00;98.80;;;;;;5117290;28;20630;-86
2022/01/26 13:29:27;;;;;;;69.50;35.57;;;4.10;98.40;;;;;;5098688;28;20181;-86
2022/01/26 13:37:23;;;;;;;69.07;35.43;;;4.10;99.20;;;;;;5118338;28;20609;-89
2022/01/26 13:50:39;;;;;;;74.07;37.37;;;4.00;98.90;;;;;;5103686;28;20163;-89
2022/01/26 13:53:12;;;;;;;67.73;35.80;;;4.00;99.20;;;;;;5085229;28;20160;-88
2022/01/26 13:55:57;;;;;;;68.73;36.43;;;4.10;99.10;;;;;;5099251;28;20210;-88
2022/01/26 14:01:20;;;;;;;69.90;34.97;;;4.00;99.10;;;;;;5100642;28;20206;-86
2022/01/26 14:03:55;;;;;;;66.47;34.97;;;4.00;99.30;;;;;;5084381;28;20278;-88
2022/01/26 14:06:37;;;;;;;71.33;35.07;;;4.10;99.30;;;;;;5085118;28;20244;-91
2022/01/26 14:09:05;;;;;;;67.70;34.07;;;4.20;98.90;;;;;;5085422;28;20179;-87
2022/01/26 14:11:32;;;;;;;67.37;33.77;;;4.20;98.70;;;;;;5084083;28;20202;-88
2022/01/26 14:13:59;;;;;;;65.67;33.27;;;4.10;98.70;;;;;;5082989;28;20262;-87
2022/01/26 14:16:27;;;;;;;61.83;33.90;;;4.20;98.90;;;;;;5081939;28;20225;-86
2022/01/26 14:27:02;;;;;;;65.40;32.67;;;4.10;98.40;;;;;;5097664;28;20672;-87
2022/01/26 14:30:40;;;;;;;86.07;53.00;;;4.20;98.60;;;;;;5081417;28;20174;-86
2022/01/26 14:51:49;;;;;;;68.53;34.20;;;4.50;97.40;;;;;;5114279;28;20224;-88
2022/01/26 15:30:27;;;;;;;59.77;31.90;;;4.30;97.30;;;;;;5132612;28;20185;-87
2022/01/26 15:33:23;;;;;;;58.23;30.03;;;4.30;97.60;;;;;;5110567;28;20225;-87
2022/01/26 16:05:59;;;;;;;54.17;31.13;;;4.30;97.90;;;;;;5128630;27;20178;-86
2022/01/26 16:16:40;;;;;;;53.60;30.00;;;4.40;98.10;;;;;;5120096;28;20591;-89
2022/01/26 17:24:17;;;;;;;52.53;31.57;;;4.50;98.00;;;;;;5120499;28;20182;-87
2022/01/26 17:46:50;;;;;;;50.27;31.47;;;4.90;98.40;;;;;;5119319;28;20308;-90
2022/01/26 18:49:17;;;;;;;47.43;28.70;;;4.90;97.60;;;;;;5102274;28;20206;-87
2022/01/26 18:51:44;;;;;;;44.00;28.40;;;4.80;97.50;;;;;;5081568;28;20215;-89
2022/01/26 18:54:15;;;;;;;45.63;28.23;;;4.80;97.80;;;;;;5081500;28;20175;-89
2022/01/26 18:56:41;;;;;;;41.33;27.17;;;4.80;97.90;;;;;;5086201;28;20181;-87
2022/01/26 18:59:11;;;;;;;43.27;27.97;;;4.90;97.50;;;;;;5103187;28;20177;-88
2022/01/26 19:01:42;;;;;;;50.43;29.73;;;4.80;97.50;;;;;;5120603;28;20158;-89
2022/01/26 19:04:08;;;;;;;47.23;28.40;;;4.80;97.60;;;;;;5101868;28;20307;-89
2022/01/26 19:06:37;;;;;;;45.47;27.13;;;4.80;97.50;;;;;;5095775;28;20198;-86
2022/01/26 19:09:03;;;;;;;48.57;28.67;;;4.70;98.00;;;;;;5085476;28;20175;-88
2022/01/26 19:11:29;;;;;;;46.93;27.97;;;4.80;98.30;;;;;;5108586;28;20175;-87
2022/01/26 19:13:55;;;;;;;40.50;25.77;;;4.80;98.00;;;;;;5114133;27;20185;-90
2022/01/26 19:19:22;;;;;;;45.87;28.87;;;4.80;97.80;;;;;;5131213;27;20156;-87
2022/01/26 19:22:01;;;;;;;41.93;25.80;;;4.90;97.50;;;;;;5119564;27;20183;-90
2022/01/26 19:25:02;;;;;;;42.90;27.33;;;4.90;97.00;;;;;;5113302;28;20171;-89
2022/01/26 19:45:04;;;;;;;41.97;27.30;;;4.80;97.20;;;;;;5138229;27;20232;-89
2022/01/26 19:53:25;;;;;;;40.07;24.80;;;4.80;97.40;;;;;;5130786;27;20178;-90
2022/01/26 19:55:54;;;;;;;39.43;26.27;;;4.80;96.70;;;;;;5106329;28;20335;-90
2022/01/26 19:58:39;;;;;;;41.37;24.97;;;4.90;96.70;;;;;;5112342;28;20254;-91
2022/01/26 20:01:05;;;;;;;41.80;27.23;;;4.90;96.40;;;;;;5130907;27;20194;-93